Time;durP1;ratioP1;P1;durP2;ratioP2;P2;SDS_P1;SDS_P2;PMS_P1;PMS_P2;Temp;Humidity;BMP_temperature;BMP_pressure;BME280_temperature;BME280_humidity;BME280_pressure;Samples;Min_cycle;Max_cycle;Signal;HPM_P1;HPM_P2
2024/01/06 00:00:57;;;;;;;3.93;3.30;;;7.20;99.90;;;;;;4858566;29;20244;-70
2024/01/06 00:03:22;;;;;;;7.03;4.53;;;7.20;99.90;;;;;;4859329;29;20200;-71
2024/01/06 00:05:48;;;;;;;5.17;3.53;;;7.20;99.90;;;;;;4860417;29;20325;-71
2024/01/06 00:08:13;;;;;;;3.90;3.10;;;7.20;99.90;;;;;;4863444;29;20245;-73
2024/01/06 00:10:39;;;;;;;4.20;3.67;;;7.20;99.90;;;;;;4861157;29;20215;-71
2024/01/06 00:13:04;;;;;;;5.30;4.10;;;7.20;99.90;;;;;;4864550;29;20197;-71
2024/01/06 00:15:30;;;;;;;3.70;3.40;;;7.30;99.90;;;;;;4858498;29;20530;-72
2024/01/06 00:17:56;;;;;;;6.20;4.30;;;7.30;99.90;;;;;;4853697;29;20289;-74
2024/01/06 00:20:21;;;;;;;5.63;4.07;;;7.30;99.90;;;;;;4860028;29;20189;-75
2024/01/06 00:22:47;;;;;;;5.13;3.90;;;7.30;99.90;;;;;;4851016;29;20207;-73
2024/01/06 00:25:12;;;;;;;6.00;3.90;;;7.30;99.90;;;;;;4864067;29;20208;-71
2024/01/06 00:27:38;;;;;;;4.57;3.93;;;7.30;99.90;;;;;;4862810;29;20200;-70
2024/01/06 00:30:04;;;;;;;6.03;4.27;;;7.30;99.90;;;;;;4849840;29;20193;-70
2024/01/06 00:32:29;;;;;;;4.50;4.10;;;7.30;99.90;;;;;;4863682;29;20267;-72
2024/01/06 00:34:55;;;;;;;5.37;4.40;;;7.30;99.90;;;;;;4864089;29;20461;-72
2024/01/06 00:37:21;;;;;;;5.83;4.63;;;7.30;99.90;;;;;;4860420;29;20193;-70
2024/01/06 00:39:46;;;;;;;5.80;4.47;;;7.30;99.90;;;;;;4859906;29;20230;-70
2024/01/06 00:42:12;;;;;;;6.57;5.37;;;7.30;99.90;;;;;;4858824;29;20207;-70
2024/01/06 00:44:37;;;;;;;7.20;6.00;;;7.30;99.90;;;;;;4866402;29;20219;-70
2024/01/06 00:47:04;;;;;;;9.13;5.90;;;7.20;99.90;;;;;;4863186;29;20220;-71
2024/01/06 00:49:30;;;;;;;7.10;4.43;;;7.20;99.90;;;;;;4863955;29;20200;-73
2024/01/06 00:51:55;;;;;;;6.47;4.70;;;7.10;99.90;;;;;;4869601;29;20614;-70
2024/01/06 00:54:21;;;;;;;6.10;5.37;;;7.00;99.90;;;;;;4863845;29;20188;-71
2024/01/06 00:56:46;;;;;;;7.07;5.00;;;6.90;99.90;;;;;;4861791;29;20284;-73
2024/01/06 00:59:12;;;;;;;6.70;5.47;;;6.80;99.90;;;;;;4855101;29;20424;-70
2024/01/06 01:01:37;;;;;;;9.63;6.43;;;6.80;99.90;;;;;;4844198;29;20503;-71
2024/01/06 01:04:03;;;;;;;7.67;5.63;;;6.80;99.90;;;;;;4865882;29;20200;-74
2024/01/06 01:06:29;;;;;;;7.70;6.17;;;6.70;99.90;;;;;;4864283;29;20224;-71
2024/01/06 01:08:55;;;;;;;7.10;5.80;;;6.70;99.90;;;;;;4862841;29;20936;-70
2024/01/06 01:11:20;;;;;;;8.20;6.17;;;6.60;99.90;;;;;;4865711;29;20254;-72
2024/01/06 01:13:46;;;;;;;8.40;6.30;;;6.60;99.90;;;;;;4859676;29;20274;-72
2024/01/06 01:16:11;;;;;;;9.63;7.57;;;6.60;99.90;;;;;;4864211;29;20241;-70
2024/01/06 01:18:37;;;;;;;7.27;5.80;;;6.60;99.90;;;;;;4860897;29;20496;-73
2024/01/06 01:21:02;;;;;;;8.23;6.57;;;6.60;99.90;;;;;;4857417;29;20193;-73
2024/01/06 01:23:28;;;;;;;8.80;7.40;;;6.50;99.90;;;;;;4866686;29;20295;-72
2024/01/06 01:25:54;;;;;;;7.93;5.70;;;6.50;99.90;;;;;;4850687;29;20223;-72
2024/01/06 01:28:20;;;;;;;9.53;7.13;;;6.50;99.90;;;;;;4852306;29;20192;-70
2024/01/06 01:30:46;;;;;;;8.77;6.37;;;6.50;99.90;;;;;;4871673;29;20627;-72
2024/01/06 01:33:11;;;;;;;9.77;6.73;;;6.50;99.90;;;;;;4865710;29;20382;-71
2024/01/06 01:35:37;;;;;;;7.50;5.97;;;6.50;99.90;;;;;;4855285;29;20217;-73
2024/01/06 01:38:03;;;;;;;9.87;7.00;;;6.50;99.90;;;;;;4863120;29;20189;-69
2024/01/06 01:40:28;;;;;;;7.90;6.27;;;6.50;99.90;;;;;;4853051;29;20189;-70
2024/01/06 01:42:54;;;;;;;7.33;6.20;;;6.50;99.90;;;;;;4848799;29;20195;-70
2024/01/06 01:45:19;;;;;;;13.83;10.43;;;6.50;99.90;;;;;;4859897;29;20243;-72
2024/01/06 01:47:45;;;;;;;14.33;10.70;;;6.50;99.90;;;;;;4862196;29;20200;-70
2024/01/06 01:50:13;;;;;;;12.37;9.27;;;6.40;99.90;;;;;;4856242;29;20197;-71
2024/01/06 01:52:40;;;;;;;15.30;10.90;;;6.40;99.90;;;;;;4853664;29;20763;-69
2024/01/06 01:55:06;;;;;;;13.60;10.10;;;6.40;99.90;;;;;;4856698;29;20446;-72
2024/01/06 01:57:32;;;;;;;10.30;8.20;;;6.40;99.90;;;;;;4855494;29;20432;-70
2024/01/06 01:59:59;;;;;;;13.60;9.97;;;6.40;99.90;;;;;;4856100;29;20426;-69
2024/01/06 02:02:25;;;;;;;11.60;10.03;;;6.40;99.90;;;;;;4857173;29;20231;-69
2024/01/06 02:04:50;;;;;;;16.30;10.07;;;6.40;99.90;;;;;;4851755;29;20471;-71
2024/01/06 02:07:16;;;;;;;13.87;9.67;;;6.30;99.90;;;;;;4856429;29;20429;-71
2024/01/06 02:09:42;;;;;;;14.53;10.87;;;6.30;99.90;;;;;;4852322;29;20469;-69
2024/01/06 02:12:07;;;;;;;13.50;9.80;;;6.30;99.90;;;;;;4857026;29;20216;-70
2024/01/06 02:14:33;;;;;;;13.33;9.20;;;6.30;99.90;;;;;;4846616;29;20268;-71
2024/01/06 02:16:58;;;;;;;13.70;9.50;;;6.30;99.90;;;;;;4848413;29;20248;-70
2024/01/06 02:19:24;;;;;;;11.90;8.87;;;6.30;99.90;;;;;;4860554;29;20193;-69
2024/01/06 02:21:53;;;;;;;14.03;9.60;;;6.30;99.90;;;;;;4863079;29;20563;-70
2024/01/06 02:24:19;;;;;;;11.97;8.63;;;6.30;99.90;;;;;;4857694;29;20259;-70
2024/01/06 02:26:47;;;;;;;9.30;7.53;;;6.30;99.90;;;;;;4865846;29;20481;-70
2024/01/06 02:29:12;;;;;;;12.50;8.57;;;6.30;99.90;;;;;;4865680;29;20421;-70
2024/01/06 02:31:39;;;;;;;12.50;8.93;;;6.40;99.90;;;;;;4856059;29;20481;-70
2024/01/06 02:34:04;;;;;;;13.90;10.10;;;6.40;99.90;;;;;;4855926;29;20442;-69
2024/01/06 02:36:30;;;;;;;11.90;8.50;;;6.30;99.90;;;;;;4840610;29;20216;-69
2024/01/06 02:38:55;;;;;;;14.03;9.87;;;6.30;99.90;;;;;;4854945;29;20234;-70
2024/01/06 02:41:21;;;;;;;11.60;9.63;;;6.30;99.90;;;;;;4855425;29;20205;-71
2024/01/06 02:43:47;;;;;;;17.20;10.47;;;6.40;99.90;;;;;;4858266;29;20192;-71
2024/01/06 02:46:12;;;;;;;15.53;11.10;;;6.40;99.90;;;;;;4843328;29;20224;-70
2024/01/06 02:48:38;;;;;;;17.57;11.83;;;6.40;99.90;;;;;;4866890;29;20232;-70
2024/01/06 02:51:05;;;;;;;15.03;10.30;;;6.40;99.90;;;;;;4860959;29;20219;-72
2024/01/06 02:53:31;;;;;;;17.23;12.10;;;6.40;99.90;;;;;;4863388;29;20585;-70
2024/01/06 02:55:56;;;;;;;19.00;10.83;;;6.40;99.90;;;;;;4841124;29;20509;-70
2024/01/06 02:58:22;;;;;;;12.10;9.20;;;6.30;99.90;;;;;;4858179;29;20244;-71
2024/01/06 03:00:47;;;;;;;16.07;10.93;;;6.40;99.90;;;;;;4853407;29;20208;-69
2024/01/06 03:03:13;;;;;;;16.80;9.23;;;6.40;99.90;;;;;;4844844;29;20228;-69
2024/01/06 03:05:38;;;;;;;12.20;7.27;;;6.40;99.90;;;;;;4864306;29;20232;-68
2024/01/06 03:08:04;;;;;;;11.87;6.43;;;6.40;99.90;;;;;;4840131;29;20184;-69
2024/01/06 03:10:30;;;;;;;12.50;7.30;;;6.40;99.90;;;;;;4859417;29;20300;-70
2024/01/06 03:12:55;;;;;;;21.47;12.77;;;6.40;99.90;;;;;;4848245;29;20514;-69
2024/01/06 03:15:22;;;;;;;24.90;13.50;;;6.40;99.90;;;;;;4850469;29;20216;-69
2024/01/06 03:17:47;;;;;;;21.70;12.87;;;6.40;99.90;;;;;;4863817;29;20644;-70
2024/01/06 03:20:13;;;;;;;17.60;9.87;;;6.40;99.90;;;;;;4851790;29;20430;-71
2024/01/06 03:22:39;;;;;;;15.47;9.50;;;6.40;99.90;;;;;;4855571;29;20527;-69
2024/01/06 03:25:06;;;;;;;14.00;8.57;;;6.40;99.90;;;;;;4851830;29;20224;-69
2024/01/06 03:27:31;;;;;;;12.77;7.80;;;6.40;99.90;;;;;;4852094;29;20605;-71
2024/01/06 03:29:57;;;;;;;22.87;12.50;;;6.40;99.90;;;;;;4853604;29;20426;-70
2024/01/06 03:32:22;;;;;;;16.30;10.60;;;6.50;99.90;;;;;;4862147;29;20232;-70
2024/01/06 03:34:48;;;;;;;12.50;8.23;;;6.50;99.90;;;;;;4859306;29;20625;-70
2024/01/06 03:37:13;;;;;;;18.37;9.97;;;6.50;99.90;;;;;;4863141;29;20201;-71
2024/01/06 03:39:39;;;;;;;22.73;13.20;;;6.40;99.90;;;;;;4857844;29;20192;-69
2024/01/06 03:42:05;;;;;;;19.77;11.90;;;6.40;99.90;;;;;;4847670;29;20200;-69
2024/01/06 03:44:33;;;;;;;20.20;11.70;;;6.40;99.90;;;;;;4857661;29;20277;-70
2024/01/06 03:46:59;;;;;;;18.90;10.90;;;6.50;99.90;;;;;;4855562;29;20454;-70
2024/01/06 03:49:25;;;;;;;26.60;12.33;;;6.40;99.90;;;;;;4866891;29;20437;-72
2024/01/06 03:51:51;;;;;;;40.90;18.97;;;6.40;99.90;;;;;;4852683;29;20949;-70
2024/01/06 03:54:16;;;;;;;54.43;22.30;;;6.40;99.90;;;;;;4861703;29;20465;-70
2024/01/06 03:56:42;;;;;;;40.93;19.80;;;6.40;99.90;;;;;;4852550;29;20562;-69
2024/01/06 03:59:08;;;;;;;43.80;19.53;;;6.40;99.90;;;;;;4865575;29;20248;-69
2024/01/06 04:01:35;;;;;;;32.97;17.37;;;6.40;99.90;;;;;;4864491;29;20535;-70
2024/01/06 04:04:03;;;;;;;40.67;20.23;;;6.40;99.90;;;;;;4856696;29;20458;-69
2024/01/06 04:06:29;;;;;;;40.40;18.77;;;6.40;99.90;;;;;;4855436;29;20826;-69
2024/01/06 04:08:55;;;;;;;36.83;16.57;;;6.40;99.90;;;;;;4822688;29;20890;-70
2024/01/06 04:11:21;;;;;;;39.83;18.50;;;6.40;99.90;;;;;;4855836;29;20467;-69
2024/01/06 04:13:47;;;;;;;54.00;24.87;;;6.40;99.90;;;;;;4862062;29;20216;-71
2024/01/06 04:16:13;;;;;;;54.70;23.03;;;6.40;99.90;;;;;;4849271;29;20541;-69
2024/01/06 04:18:38;;;;;;;47.33;21.83;;;6.40;99.90;;;;;;4865691;29;20520;-69
2024/01/06 04:21:04;;;;;;;43.40;18.70;;;6.40;99.90;;;;;;4862326;29;20647;-71
2024/01/06 04:23:30;;;;;;;35.60;16.90;;;6.40;99.90;;;;;;4858747;29;20249;-70
2024/01/06 04:25:56;;;;;;;52.63;22.20;;;6.40;99.90;;;;;;4846218;29;20458;-70
2024/01/06 04:28:22;;;;;;;46.60;18.40;;;6.40;99.90;;;;;;4860095;29;20533;-70
2024/01/06 04:30:47;;;;;;;36.63;17.37;;;6.40;99.90;;;;;;4862575;29;20236;-69
2024/01/06 04:33:13;;;;;;;47.50;17.17;;;6.40;99.90;;;;;;4861758;29;20192;-70
2024/01/06 04:35:39;;;;;;;59.97;25.70;;;6.40;99.90;;;;;;4859131;29;20224;-70
2024/01/06 04:38:04;;;;;;;51.83;21.13;;;6.50;99.90;;;;;;4831375;29;20215;-69
2024/01/06 04:40:30;;;;;;;46.40;19.77;;;6.50;99.90;;;;;;4849302;29;20617;-70
2024/01/06 04:42:55;;;;;;;42.13;19.67;;;6.50;99.90;;;;;;4852485;29;20233;-69
2024/01/06 04:45:23;;;;;;;37.80;17.83;;;6.50;99.90;;;;;;4860504;29;20217;-70
2024/01/06 04:47:49;;;;;;;42.93;17.17;;;6.60;99.90;;;;;;4859582;29;20219;-71
2024/01/06 04:50:15;;;;;;;59.27;24.07;;;6.50;99.90;;;;;;4862500;29;20505;-69
2024/01/06 04:52:41;;;;;;;59.93;21.67;;;6.60;99.90;;;;;;4850832;29;20466;-71
2024/01/06 04:55:07;;;;;;;59.50;24.67;;;6.60;99.90;;;;;;4856383;29;20441;-68
2024/01/06 04:57:32;;;;;;;63.90;24.47;;;6.50;99.90;;;;;;4853571;29;20573;-69
2024/01/06 04:59:59;;;;;;;80.80;29.40;;;6.50;99.90;;;;;;4853697;29;20484;-70
2024/01/06 05:02:25;;;;;;;81.23;31.13;;;6.50;99.90;;;;;;4860855;29;20236;-70
2024/01/06 05:04:51;;;;;;;84.67;33.40;;;6.50;99.90;;;;;;4862894;29;20759;-69
2024/01/06 05:07:16;;;;;;;66.83;26.63;;;6.50;99.90;;;;;;4863467;29;20493;-68
2024/01/06 05:09:42;;;;;;;85.30;28.20;;;6.50;99.90;;;;;;4851891;29;20519;-69
2024/01/06 05:12:08;;;;;;;93.47;32.90;;;6.50;99.90;;;;;;4851306;29;20513;-70
2024/01/06 05:14:33;;;;;;;185.03;42.90;;;6.50;99.90;;;;;;4855764;29;20212;-70
2024/01/06 05:16:59;;;;;;;71.30;29.37;;;6.50;99.90;;;;;;4853642;29;20217;-71
2024/01/06 05:19:25;;;;;;;82.10;30.47;;;6.50;99.90;;;;;;4852555;29;20204;-72
2024/01/06 05:21:50;;;;;;;84.00;30.03;;;6.50;99.90;;;;;;4852517;29;20160;-70
2024/01/06 05:24:17;;;;;;;73.13;24.53;;;6.50;99.90;;;;;;4863806;29;20213;-70
2024/01/06 05:26:42;;;;;;;55.53;22.70;;;6.40;99.90;;;;;;4861794;29;20216;-70
2024/01/06 05:29:09;;;;;;;65.60;25.00;;;6.40;99.90;;;;;;4850868;29;20576;-71
2024/01/06 05:31:35;;;;;;;76.57;25.13;;;6.40;99.90;;;;;;4857922;29;20212;-69
2024/01/06 05:34:00;;;;;;;59.50;23.57;;;6.30;99.90;;;;;;4855532;29;20440;-70
2024/01/06 05:36:26;;;;;;;53.27;21.73;;;6.20;99.90;;;;;;4852039;29;20246;-70
2024/01/06 05:38:51;;;;;;;59.33;21.30;;;6.10;99.90;;;;;;4850980;29;20193;-69
2024/01/06 05:41:17;;;;;;;69.03;23.70;;;5.90;99.90;;;;;;4849113;29;20278;-70
2024/01/06 05:43:43;;;;;;;48.73;21.13;;;5.80;99.90;;;;;;4855092;29;20467;-70
2024/01/06 05:46:10;;;;;;;61.43;22.93;;;5.70;99.90;;;;;;4862256;29;20224;-72
2024/01/06 05:48:36;;;;;;;47.53;18.80;;;5.70;99.90;;;;;;4864559;29;20293;-70
2024/01/06 05:51:01;;;;;;;46.00;18.43;;;5.60;99.90;;;;;;4858892;29;20497;-70
2024/01/06 05:53:27;;;;;;;38.13;16.37;;;5.60;99.90;;;;;;4846909;29;20185;-68
2024/01/06 05:55:52;;;;;;;42.47;17.03;;;5.50;99.90;;;;;;4854544;29;20216;-72
2024/01/06 05:58:18;;;;;;;43.13;17.37;;;5.50;99.90;;;;;;4846239;29;20203;-69
2024/01/06 06:00:45;;;;;;;40.27;16.73;;;5.40;99.90;;;;;;4865994;29;20183;-71
2024/01/06 06:03:11;;;;;;;45.93;17.83;;;5.40;99.90;;;;;;4848896;29;20240;-70
2024/01/06 06:05:36;;;;;;;50.50;16.97;;;5.30;99.90;;;;;;4855951;29;20458;-71
2024/01/06 06:08:02;;;;;;;41.03;15.27;;;5.30;99.90;;;;;;4861618;29;20261;-70
2024/01/06 06:10:40;;;;;;;47.40;15.93;;;5.30;99.90;;;;;;4849847;29;20231;-70
2024/01/06 06:13:06;;;;;;;42.80;15.13;;;5.30;99.90;;;;;;4863053;29;20225;-70
2024/01/06 06:15:32;;;;;;;41.03;12.90;;;5.30;99.90;;;;;;4860131;29;20902;-71
2024/01/06 06:18:00;;;;;;;39.80;14.93;;;5.30;99.90;;;;;;4846956;29;20437;-69
2024/01/06 06:20:25;;;;;;;39.17;15.43;;;5.30;99.90;;;;;;4859932;29;20721;-71
2024/01/06 06:22:51;;;;;;;43.57;14.87;;;5.20;99.90;;;;;;4855097;29;20437;-69
2024/01/06 06:25:17;;;;;;;34.17;13.83;;;5.20;99.90;;;;;;4856740;29;20227;-70
2024/01/06 06:27:42;;;;;;;32.83;13.17;;;5.10;99.90;;;;;;4862354;29;20280;-72
2024/01/06 06:30:08;;;;;;;37.80;13.80;;;5.10;99.90;;;;;;4850578;29;20208;-70
2024/01/06 06:32:34;;;;;;;38.87;12.53;;;5.00;99.90;;;;;;4845981;29;20323;-70
2024/01/06 06:34:59;;;;;;;32.77;13.40;;;4.90;99.90;;;;;;4857650;29;20445;-71
2024/01/06 06:37:25;;;;;;;33.17;12.17;;;4.90;99.90;;;;;;4855237;29;20180;-72
2024/01/06 06:39:50;;;;;;;31.60;12.00;;;4.90;99.90;;;;;;4845340;29;20192;-71
2024/01/06 06:42:17;;;;;;;25.80;10.27;;;4.80;99.90;;;;;;4859788;29;20188;-69
2024/01/06 06:44:42;;;;;;;22.77;9.50;;;4.90;99.90;;;;;;4859137;29;20285;-71
2024/01/06 06:47:08;;;;;;;30.77;11.10;;;4.90;99.90;;;;;;4859909;29;20444;-69
2024/01/06 06:49:34;;;;;;;34.97;12.20;;;4.90;99.90;;;;;;4854355;29;20205;-71
2024/01/06 06:51:59;;;;;;;39.20;16.43;;;4.90;99.90;;;;;;4855146;29;20225;-70
2024/01/06 06:54:25;;;;;;;39.10;14.53;;;4.90;99.90;;;;;;4860360;29;20275;-69
2024/01/06 06:56:50;;;;;;;41.97;14.77;;;4.80;99.90;;;;;;4857527;29;20220;-71
2024/01/06 06:59:16;;;;;;;38.70;13.60;;;4.80;99.90;;;;;;4860006;29;20211;-71
2024/01/06 07:01:42;;;;;;;39.73;13.70;;;4.80;99.90;;;;;;4834177;29;20236;-68
2024/01/06 07:04:07;;;;;;;48.57;16.37;;;4.80;99.90;;;;;;4845351;29;20201;-70
2024/01/06 07:06:33;;;;;;;43.77;15.03;;;4.80;99.90;;;;;;4854183;29;20554;-70
2024/01/06 07:08:59;;;;;;;52.43;16.83;;;4.80;99.90;;;;;;4851885;29;20216;-69
2024/01/06 07:11:25;;;;;;;35.67;14.27;;;4.80;99.90;;;;;;4848871;29;20291;-70
2024/01/06 07:13:51;;;;;;;46.07;14.60;;;4.80;99.90;;;;;;4853282;29;20946;-69
2024/01/06 07:16:16;;;;;;;31.70;11.70;;;4.80;99.90;;;;;;4852080;29;20213;-70
2024/01/06 07:18:42;;;;;;;36.93;12.20;;;4.80;99.90;;;;;;4855067;29;20291;-70
2024/01/06 07:21:08;;;;;;;44.03;13.60;;;4.90;99.90;;;;;;4858343;29;20502;-70
2024/01/06 07:23:34;;;;;;;36.73;11.50;;;4.90;99.90;;;;;;4831995;29;20197;-70
2024/01/06 07:25:59;;;;;;;33.57;11.27;;;4.90;99.90;;;;;;4857040;29;20899;-69
2024/01/06 07:28:25;;;;;;;27.73;9.40;;;4.90;99.90;;;;;;4855404;29;20430;-70
2024/01/06 07:30:51;;;;;;;32.07;10.60;;;4.90;99.90;;;;;;4858089;29;20229;-70
2024/01/06 07:33:16;;;;;;;36.57;12.23;;;4.90;99.90;;;;;;4863207;29;20441;-70
2024/01/06 07:35:43;;;;;;;37.53;12.10;;;4.80;99.90;;;;;;4858069;29;20220;-70
2024/01/06 07:38:12;;;;;;;42.13;14.10;;;4.80;99.90;;;;;;4860883;29;20454;-70
2024/01/06 07:40:38;;;;;;;41.23;13.40;;;4.80;99.90;;;;;;4856943;29;20525;-70
2024/01/06 07:43:04;;;;;;;57.03;17.60;;;4.80;99.90;;;;;;4853397;29;20944;-72
2024/01/06 07:45:31;;;;;;;61.10;18.33;;;4.80;99.90;;;;;;4854805;29;20204;-73
2024/01/06 07:47:57;;;;;;;51.20;17.23;;;4.70;99.90;;;;;;4862202;29;20417;-70
2024/01/06 07:50:23;;;;;;;52.73;16.50;;;4.70;99.90;;;;;;4861444;29;20496;-69
2024/01/06 07:52:48;;;;;;;56.47;16.43;;;4.60;99.90;;;;;;4866742;29;20928;-71
2024/01/06 07:55:14;;;;;;;56.83;15.73;;;4.60;99.90;;;;;;4849475;29;20331;-70
2024/01/06 07:57:39;;;;;;;68.63;17.53;;;4.60;99.90;;;;;;4863214;29;20192;-71
2024/01/06 08:00:05;;;;;;;56.93;17.43;;;4.60;99.90;;;;;;4854543;29;20222;-70
2024/01/06 08:02:37;;;;;;;46.60;15.33;;;4.60;99.90;;;;;;4864085;29;20228;-70
2024/01/06 08:05:03;;;;;;;57.07;17.13;;;4.60;99.90;;;;;;4851107;29;20521;-70
2024/01/06 08:07:28;;;;;;;59.53;17.47;;;4.60;99.90;;;;;;4866663;29;20195;-70
2024/01/06 08:09:54;;;;;;;61.93;18.90;;;4.60;99.90;;;;;;4865652;29;20181;-72
2024/01/06 08:12:20;;;;;;;62.93;17.53;;;4.60;99.90;;;;;;4854223;29;20303;-70
2024/01/06 08:14:45;;;;;;;59.73;18.40;;;4.60;99.90;;;;;;4853475;29;20201;-69
2024/01/06 08:17:11;;;;;;;58.67;17.00;;;4.60;99.90;;;;;;4848785;29;20527;-70
2024/01/06 08:19:36;;;;;;;57.47;17.27;;;4.60;99.90;;;;;;4848892;29;20193;-72
2024/01/06 08:22:02;;;;;;;59.27;17.40;;;4.60;99.90;;;;;;4861505;29;20227;-69
2024/01/06 08:24:28;;;;;;;49.40;17.77;;;4.60;99.90;;;;;;4854204;29;20189;-71
2024/01/06 08:26:53;;;;;;;44.60;15.97;;;4.60;99.90;;;;;;4852807;29;20208;-70
2024/01/06 08:29:19;;;;;;;46.90;15.23;;;4.60;99.90;;;;;;4856692;29;20193;-71
2024/01/06 08:31:45;;;;;;;57.07;16.50;;;4.60;99.90;;;;;;4865097;29;20224;-71
2024/01/06 08:34:11;;;;;;;48.80;15.37;;;4.60;99.90;;;;;;4848174;29;20440;-70
2024/01/06 08:36:37;;;;;;;65.73;19.23;;;4.60;99.90;;;;;;4857418;29;20481;-71
2024/01/06 08:39:02;;;;;;;42.70;15.33;;;4.60;99.90;;;;;;4857478;29;20204;-70
2024/01/06 08:41:29;;;;;;;50.47;17.40;;;4.60;99.90;;;;;;4855816;29;20445;-71
2024/01/06 08:43:55;;;;;;;49.17;14.80;;;4.60;99.90;;;;;;4854382;29;20211;-71
2024/01/06 08:46:20;;;;;;;47.50;16.67;;;4.60;99.90;;;;;;4853270;29;20449;-72
2024/01/06 08:48:46;;;;;;;52.63;17.40;;;4.60;99.90;;;;;;4851524;29;20260;-70
2024/01/06 08:51:12;;;;;;;48.53;16.37;;;4.60;99.90;;;;;;4862649;29;20205;-70
2024/01/06 08:53:37;;;;;;;54.10;16.57;;;4.60;99.90;;;;;;4858021;29;20288;-70
2024/01/06 08:56:03;;;;;;;50.90;16.83;;;4.60;99.90;;;;;;4863168;29;20224;-72
2024/01/06 08:58:29;;;;;;;49.60;14.43;;;4.60;99.90;;;;;;4864971;29;20288;-70
2024/01/06 09:00:54;;;;;;;58.40;16.77;;;4.70;99.90;;;;;;4861983;29;20633;-71
2024/01/06 09:03:25;;;;;;;39.70;13.97;;;4.70;99.90;;;;;;4866670;29;20535;-71
2024/01/06 09:05:52;;;;;;;41.00;13.87;;;4.70;99.90;;;;;;4864300;29;20219;-72
2024/01/06 09:08:18;;;;;;;36.53;13.27;;;4.70;99.90;;;;;;4863804;29;20430;-70
2024/01/06 09:10:43;;;;;;;45.03;17.00;;;4.80;99.90;;;;;;4856662;29;20430;-70
2024/01/06 09:13:10;;;;;;;50.00;14.67;;;4.90;99.90;;;;;;4838355;29;20296;-70
2024/01/06 09:15:35;;;;;;;47.97;15.73;;;4.90;99.90;;;;;;4858814;29;20209;-71
2024/01/06 09:18:02;;;;;;;47.00;16.77;;;4.90;99.90;;;;;;4848224;29;21015;-73
2024/01/06 09:20:28;;;;;;;45.23;16.40;;;4.90;99.90;;;;;;4865430;29;20197;-71
2024/01/06 09:22:54;;;;;;;39.90;14.03;;;4.90;99.90;;;;;;4865860;29;20706;-70
2024/01/06 09:25:19;;;;;;;52.57;17.87;;;4.90;99.90;;;;;;4854337;29;20454;-73
2024/01/06 09:27:45;;;;;;;41.23;15.23;;;4.90;99.90;;;;;;4866043;29;20294;-70
2024/01/06 09:30:11;;;;;;;40.40;14.97;;;4.80;99.90;;;;;;4860394;29;20189;-70
2024/01/06 09:32:36;;;;;;;50.90;15.80;;;4.80;99.90;;;;;;4850693;29;20593;-70
2024/01/06 09:35:03;;;;;;;65.33;17.37;;;4.70;99.90;;;;;;4851680;29;20517;-72
2024/01/06 09:37:29;;;;;;;43.30;15.47;;;4.70;99.90;;;;;;4832077;29;20203;-71
2024/01/06 09:39:54;;;;;;;40.87;15.67;;;4.70;99.90;;;;;;4855954;29;20912;-70
2024/01/06 09:42:20;;;;;;;51.67;17.93;;;4.70;99.90;;;;;;4854023;29;20189;-70
2024/01/06 09:44:46;;;;;;;43.33;14.33;;;4.70;99.90;;;;;;4845988;29;20185;-72
2024/01/06 09:47:12;;;;;;;40.67;14.70;;;4.70;99.90;;;;;;4860914;29;20553;-71
2024/01/06 09:49:39;;;;;;;37.03;14.67;;;4.70;99.90;;;;;;4861253;29;20303;-71
2024/01/06 09:52:15;;;;;;;47.23;15.43;;;4.70;99.90;;;;;;4866999;29;20468;-71
2024/01/06 09:54:50;;;;;;;42.30;13.70;;;4.70;99.90;;;;;;4855412;29;20440;-71
2024/01/06 09:57:16;;;;;;;40.80;15.60;;;4.70;99.90;;;;;;4859558;29;20418;-71
2024/01/06 09:59:44;;;;;;;37.30;15.30;;;4.70;99.90;;;;;;4852177;29;20430;-73
2024/01/06 10:02:14;;;;;;;44.00;16.57;;;4.70;99.90;;;;;;4854611;29;20229;-72
2024/01/06 10:04:40;;;;;;;38.10;15.30;;;4.70;99.90;;;;;;4866174;29;20434;-73
2024/01/06 10:07:05;;;;;;;45.90;16.53;;;4.70;99.90;;;;;;4851635;29;20513;-72
2024/01/06 10:09:31;;;;;;;30.93;13.13;;;4.70;99.90;;;;;;4855325;29;20191;-72
2024/01/06 10:11:58;;;;;;;34.83;13.00;;;4.80;99.90;;;;;;4857255;29;20224;-72
2024/01/06 10:14:25;;;;;;;39.30;15.53;;;4.80;99.90;;;;;;4864508;29;20433;-72
2024/01/06 10:16:52;;;;;;;33.03;13.70;;;4.80;99.90;;;;;;4856636;29;20453;-72
2024/01/06 10:19:18;;;;;;;29.83;13.30;;;4.80;99.90;;;;;;4853949;29;20433;-70
2024/01/06 10:21:44;;;;;;;26.10;12.00;;;4.80;99.90;;;;;;4863943;29;20561;-72
2024/01/06 10:24:10;;;;;;;29.90;11.50;;;4.90;99.90;;;;;;4848333;29;20193;-72
2024/01/06 10:26:36;;;;;;;29.00;12.43;;;4.90;99.90;;;;;;4848688;29;20549;-73
2024/01/06 10:29:02;;;;;;;27.70;13.87;;;4.90;99.90;;;;;;4857033;29;20209;-74
2024/01/06 10:31:29;;;;;;;24.10;10.47;;;5.00;99.90;;;;;;4862851;29;21172;-71
2024/01/06 10:33:54;;;;;;;25.23;11.30;;;5.00;99.90;;;;;;4858032;29;20421;-73
2024/01/06 10:36:22;;;;;;;34.27;11.87;;;5.00;99.90;;;;;;4862283;29;20449;-73
2024/01/06 10:38:48;;;;;;;26.17;11.33;;;5.00;99.90;;;;;;4861495;29;20202;-73
2024/01/06 10:41:16;;;;;;;22.47;12.07;;;5.00;99.90;;;;;;4859015;29;20458;-72
2024/01/06 10:43:43;;;;;;;23.50;10.50;;;5.10;99.90;;;;;;4851142;29;20751;-71
2024/01/06 10:46:10;;;;;;;27.47;11.03;;;5.10;99.90;;;;;;4856211;29;20472;-71
2024/01/06 10:48:44;;;;;;;28.10;11.83;;;5.20;99.90;;;;;;4849488;29;20799;-71
2024/01/06 10:51:11;;;;;;;27.40;11.10;;;5.20;99.90;;;;;;4859076;29;20456;-71
2024/01/06 10:53:39;;;;;;;23.17;10.20;;;5.10;99.90;;;;;;4864436;29;20536;-72
2024/01/06 10:56:10;;;;;;;22.20;11.43;;;5.10;99.90;;;;;;4857621;29;20445;-73
2024/01/06 10:58:42;;;;;;;22.17;10.60;;;5.10;99.90;;;;;;4863140;29;20428;-72
2024/01/06 11:01:08;;;;;;;19.60;10.40;;;5.10;99.90;;;;;;4858646;29;20469;-73
2024/01/06 11:03:37;;;;;;;22.23;10.90;;;5.10;99.90;;;;;;4870370;29;20440;-73
2024/01/06 11:06:05;;;;;;;19.87;10.20;;;5.20;99.90;;;;;;4851159;29;20465;-72
2024/01/06 11:08:33;;;;;;;28.63;12.40;;;5.20;99.90;;;;;;4844509;29;20525;-73
2024/01/06 11:10:59;;;;;;;20.43;10.77;;;5.20;99.90;;;;;;4850004;29;20612;-72
2024/01/06 11:13:26;;;;;;;24.03;11.83;;;5.30;99.90;;;;;;4862286;29;20409;-72
2024/01/06 11:15:52;;;;;;;23.93;10.57;;;5.40;99.90;;;;;;4866956;29;20901;-73
2024/01/06 11:18:38;;;;;;;19.10;9.43;;;5.40;99.90;;;;;;4865498;29;20795;-72
2024/01/06 11:21:27;;;;;;;16.30;9.30;;;5.50;99.90;;;;;;4872644;29;20440;-73
2024/01/06 11:24:34;;;;;;;22.03;11.20;;;5.50;99.90;;;;;;4856117;29;20445;-73
2024/01/06 11:27:02;;;;;;;19.03;10.07;;;5.60;99.90;;;;;;4853353;29;20462;-73
2024/01/06 11:29:30;;;;;;;18.93;10.90;;;5.60;99.90;;;;;;4866830;29;20786;-72
2024/01/06 11:32:21;;;;;;;20.13;10.40;;;5.60;99.90;;;;;;4864076;29;20262;-74
2024/01/06 11:34:52;;;;;;;20.63;9.87;;;5.70;99.90;;;;;;4858007;29;20472;-73
2024/01/06 11:37:20;;;;;;;18.53;10.67;;;5.80;99.90;;;;;;4864323;29;20440;-73
2024/01/06 11:39:45;;;;;;;18.53;10.70;;;5.80;99.90;;;;;;4867895;29;20426;-73
2024/01/06 11:42:12;;;;;;;15.40;8.60;;;5.80;99.90;;;;;;4856406;29;20700;-74
2024/01/06 11:44:39;;;;;;;13.80;7.20;;;5.90;99.90;;;;;;4869316;29;20575;-71
2024/01/06 11:47:05;;;;;;;15.80;9.30;;;5.80;99.90;;;;;;4843146;29;20462;-73
2024/01/06 11:49:31;;;;;;;18.87;11.33;;;5.80;99.90;;;;;;4866940;29;20429;-74
2024/01/06 11:51:58;;;;;;;16.40;10.30;;;5.80;99.90;;;;;;4869317;29;20505;-72
2024/01/06 11:54:24;;;;;;;17.40;9.27;;;5.80;99.90;;;;;;4858018;29;20426;-75
2024/01/06 11:56:49;;;;;;;13.60;8.20;;;5.80;99.90;;;;;;4861772;29;20458;-71
2024/01/06 11:59:15;;;;;;;13.27;7.30;;;5.80;99.90;;;;;;4842352;29;20200;-73
2024/01/06 12:01:41;;;;;;;18.13;9.17;;;5.80;99.90;;;;;;4863134;29;20244;-72
2024/01/06 12:04:07;;;;;;;10.67;7.17;;;5.80;99.90;;;;;;4855469;29;20604;-74
2024/01/06 12:06:34;;;;;;;13.50;8.00;;;5.70;99.90;;;;;;4864796;29;20450;-73
2024/01/06 12:09:09;;;;;;;15.93;9.50;;;5.70;99.90;;;;;;4861454;29;20181;-73
2024/01/06 12:11:34;;;;;;;13.13;8.90;;;5.70;99.90;;;;;;4864334;29;20468;-72
2024/01/06 12:14:00;;;;;;;13.03;8.10;;;5.60;99.90;;;;;;4862345;29;20440;-71
2024/01/06 12:16:28;;;;;;;17.30;9.63;;;5.60;99.90;;;;;;4863008;29;20208;-73
2024/01/06 12:18:55;;;;;;;19.07;9.87;;;5.60;99.90;;;;;;4870000;29;20235;-73
2024/01/06 12:21:24;;;;;;;19.20;10.90;;;5.50;99.90;;;;;;4855747;29;20417;-74
2024/01/06 12:23:49;;;;;;;17.70;10.00;;;5.50;99.90;;;;;;4872985;29;20852;-73
2024/01/06 12:26:17;;;;;;;19.23;11.40;;;5.40;99.90;;;;;;4879253;29;20462;-74
2024/01/06 12:28:45;;;;;;;18.73;10.73;;;5.40;99.90;;;;;;4863283;29;20624;-75
2024/01/06 12:31:12;;;;;;;19.10;9.80;;;5.30;99.90;;;;;;4861444;29;20581;-72
2024/01/06 12:33:40;;;;;;;17.77;10.30;;;5.30;99.90;;;;;;4861518;29;20711;-74
2024/01/06 12:36:08;;;;;;;17.03;10.23;;;5.30;99.90;;;;;;4860403;29;20825;-74